KOGA/OGA METAR and TAF weather

Enter ICAO airport designator
Station Type Date Time Source
KOGA METAR 2019/05/25 09:15 UTC NOAA

KOGA 250915Z AUTO 29007KT 10SM CLR 09/06 A2994 RMK AO2 T00930060


Station Type Date Time Source
KOGA Decoded METAR 2019/05/25 09:15 UTC NOAA

Ogallala, Searle Field Airport, NE, United States (KOGA) 41-07-11N 101-46-08W
May 25, 2019 - 05:15 AM EDT / 2019.05.25 0915 UTC
Wind: from the WNW (290 degrees) at 8 MPH (7 KT):0
Visibility: 10 mile(s):0
Sky conditions: clear
Temperature: 48.7 F (9.3 C)
Dew Point: 42.8 F (6.0 C)
Relative Humidity: 79%
Pressure (altimeter): 29.94 in. Hg (1013 hPa)
ob: KOGA 250915Z AUTO 29007KT 10SM CLR 09/06 A2994 RMK AO2 T00930060
cycle: 9

Station Type Date Time Source
KOGA TAF UTC NOAA

Error!

Example: see airport list